Time;durP1;ratioP1;P1;durP2;ratioP2;P2;SDS_P1;SDS_P2;PMS_P1;PMS_P2;Temp;Humidity;BMP_temperature;BMP_pressure;BME280_temperature;BME280_humidity;BME280_pressure;Samples;Min_cycle;Max_cycle;Signal;HPM_P1;HPM_P2
2022/08/14 00:00:10;;;;;;;7.60;5.35;;;;;;;28.12;42.49;99973.43;1841970;77;21648;-81
2022/08/14 00:02:38;;;;;;;6.12;5.53;;;;;;;28.13;42.47;99972.22;1842421;77;20977;-81
2022/08/14 00:05:07;;;;;;;6.08;4.97;;;;;;;28.11;42.48;99971.82;1842352;77;21046;-81
2022/08/14 00:07:34;;;;;;;7.08;5.60;;;;;;;28.12;42.54;99972.03;1809440;77;21029;-81
2022/08/14 00:10:03;;;;;;;8.18;6.05;;;;;;;28.13;42.54;99975.02;1842498;77;20960;-81
2022/08/14 00:12:32;;;;;;;5.97;5.37;;;;;;;28.12;42.56;99965.63;1842451;77;21112;-81
2022/08/14 00:14:58;;;;;;;6.87;5.80;;;;;;;28.13;42.56;99964.45;1841012;77;20986;-81
2022/08/14 00:17:25;;;;;;;6.50;5.53;;;;;;;28.13;42.54;99965.84;1842240;77;20982;-81
2022/08/14 00:19:52;;;;;;;6.28;5.65;;;;;;;28.11;42.60;99957.03;1842281;77;21654;-82
2022/08/14 00:22:19;;;;;;;7.12;6.17;;;;;;;28.12;42.61;99958.05;1841906;77;21585;-81
2022/08/14 00:24:45;;;;;;;8.88;6.10;;;;;;;28.12;42.66;99953.05;1842395;77;21090;-81
2022/08/14 00:27:12;;;;;;;7.35;5.90;;;;;;;28.11;42.66;99948.64;1842258;77;21020;-81
2022/08/14 00:29:38;;;;;;;7.10;5.50;;;;;;;28.12;42.67;99941.86;1842081;77;21068;-81
2022/08/14 00:32:06;;;;;;;6.10;5.33;;;;;;;28.12;42.73;99940.47;1842202;77;21088;-81
2022/08/14 00:34:32;;;;;;;7.92;5.15;;;;;;;28.11;42.70;99938.85;1842274;77;21005;-81
2022/08/14 00:37:04;;;;;;;6.20;5.53;;;;;;;28.12;42.70;99940.47;1842106;77;22051;-81
2022/08/14 00:39:31;;;;;;;6.03;5.17;;;;;;;28.11;42.73;99943.86;1842135;77;21033;-81
2022/08/14 00:41:57;;;;;;;6.85;5.67;;;;;;;28.11;42.77;99931.86;1842256;77;21499;-81
2022/08/14 00:44:24;;;;;;;6.22;5.50;;;;;;;28.12;42.80;99933.47;1832550;77;21025;-81
2022/08/14 00:46:50;;;;;;;6.62;5.92;;;;;;;28.10;42.82;99934.45;1782456;79;21590;-81
2022/08/14 00:49:17;;;;;;;6.35;5.65;;;;;;;28.11;42.82;99931.86;1809076;78;20968;-81
2022/08/14 00:51:44;;;;;;;6.87;5.42;;;;;;;28.10;42.86;99933.05;1813767;78;20929;-81
2022/08/14 00:54:10;;;;;;;6.25;5.33;;;;;;;28.12;42.88;99934.88;1814294;79;21075;-81
2022/08/14 00:56:43;;;;;;;5.47;4.97;;;;;;;28.12;42.90;99927.88;1814214;79;21090;-81
2022/08/14 00:59:10;;;;;;;6.58;5.58;;;;;;;28.11;42.89;99921.48;1765831;79;21515;-81
2022/08/14 01:01:37;;;;;;;6.20;5.42;;;;;;;28.10;42.87;99921.27;1814146;79;21139;-82
2022/08/14 01:04:04;;;;;;;6.53;5.50;;;;;;;28.11;42.90;99920.67;1814376;78;21000;-81
2022/08/14 01:06:31;;;;;;;5.97;5.37;;;;;;;28.10;42.92;99924.06;1813940;79;21562;-81
2022/08/14 01:09:01;;;;;;;8.13;6.58;;;;;;;28.10;42.93;99919.87;1814354;78;20981;-81
2022/08/14 01:11:27;;;;;;;7.95;5.70;;;;;;;28.10;42.94;99924.06;1814334;78;21011;-81
2022/08/14 01:13:59;;;;;;;6.42;5.75;;;;;;;28.11;42.98;99926.27;1814103;79;21101;-81
2022/08/14 01:16:23;;;;;;;7.08;5.62;;;;;;;28.10;42.96;99922.66;1813475;78;21095;-81
2022/08/14 01:21:38;;;;;;;6.67;5.67;;;;;;;28.10;43.01;99922.66;1814048;79;21061;-81
2022/08/14 01:24:06;;;;;;;6.85;5.65;;;;;;;28.10;43.01;99927.45;1814581;78;21717;-81
2022/08/14 01:26:33;;;;;;;6.55;5.83;;;;;;;28.09;43.00;99926.65;1814724;79;21319;-81
2022/08/14 01:28:59;;;;;;;6.80;6.03;;;;;;;28.09;43.03;99928.64;1783180;79;21074;-81
2022/08/14 01:31:29;;;;;;;7.80;5.92;;;;;;;28.10;43.05;99931.65;1802760;79;20999;-81
2022/08/14 01:33:59;;;;;;;7.08;5.65;;;;;;;28.10;43.03;99931.65;1801684;78;21015;-82
2022/08/14 01:36:27;;;;;;;7.45;5.67;;;;;;;28.09;43.03;99930.84;1803521;78;20981;-81
2022/08/14 01:38:57;;;;;;;7.33;5.55;;;;;;;28.08;43.03;99923.64;1803745;78;21054;-81
2022/08/14 01:41:25;;;;;;;;;;;;;;;28.09;43.07;99925.84;1806362;78;20991;-81
2022/08/14 01:44:00;;;;;;;6.87;5.70;;;;;;;28.09;43.07;99927.23;1803327;78;20452;-81
2022/08/14 01:46:29;;;;;;;6.90;5.90;;;;;;;28.08;43.07;99925.63;1803222;78;21042;-81
2022/08/14 01:48:56;;;;;;;6.37;5.78;;;;;;;28.06;43.09;99919.02;1803450;78;21011;-81
2022/08/14 01:51:23;;;;;;;6.20;5.40;;;;;;;28.07;43.07;99924.02;1803704;78;21221;-82
2022/08/14 01:53:55;;;;;;;8.08;5.65;;;;;;;28.06;43.09;99924.61;1803399;78;20991;-81
2022/08/14 01:56:35;;;;;;;6.37;5.20;;;;;;;28.07;43.09;99924.83;1801992;78;20959;-81
2022/08/14 01:59:01;;;;;;;7.40;5.90;;;;;;;28.06;43.14;99921.81;1799140;78;21055;-81
2022/08/14 02:01:27;;;;;;;6.80;5.72;;;;;;;28.07;43.13;99931.01;1797793;78;20984;-81
2022/08/14 02:03:53;;;;;;;6.83;5.25;;;;;;;28.07;43.13;99930.41;1798069;78;21435;-82
2022/08/14 02:06:20;;;;;;;6.03;5.42;;;;;;;28.07;43.14;99928.21;1798225;78;21051;-82
2022/08/14 02:08:46;;;;;;;7.65;6.03;;;;;;;28.07;43.14;99932.41;1797995;78;21024;-82
2022/08/14 02:11:16;;;;;;;7.78;5.45;;;;;;;28.07;43.19;99930.41;1797923;78;21096;-82
2022/08/14 02:13:45;;;;;;;6.28;5.20;;;;;;;28.07;43.19;99933.80;1798231;78;21039;-81
2022/08/14 02:16:16;;;;;;;7.53;5.47;;;;;;;28.07;43.19;99937.41;1797765;78;21628;-82
2022/08/14 02:18:42;;;;;;;7.83;5.62;;;;;;;28.07;43.16;99938.00;1775748;79;21025;-81
2022/08/14 02:21:11;;;;;;;6.55;5.67;;;;;;;28.07;43.19;99944.98;1798101;78;21106;-82
2022/08/14 02:23:38;;;;;;;6.05;5.03;;;;;;;28.07;43.21;99940.80;1797691;78;21419;-81
2022/08/14 02:26:21;;;;;;;7.87;5.58;;;;;;;28.07;43.19;99939.40;1797790;78;21071;-82
2022/08/14 02:28:49;;;;;;;6.22;5.60;;;;;;;28.08;43.19;99939.02;1797395;78;21856;-81
2022/08/14 02:31:16;;;;;;;6.35;5.25;;;;;;;28.07;43.20;99936.59;1797601;79;21604;-81
2022/08/14 02:33:42;;;;;;;7.00;5.70;;;;;;;28.06;43.20;99935.80;1797863;79;21078;-81
2022/08/14 02:36:09;;;;;;;7.37;5.70;;;;;;;28.07;43.21;99936.59;1797531;79;21062;-81
2022/08/14 02:38:37;;;;;;;6.92;5.28;;;;;;;28.07;43.26;99938.00;1797811;79;21038;-81
2022/08/14 02:41:04;;;;;;;6.05;5.45;;;;;;;28.07;43.28;99936.59;1797684;79;21085;-81
2022/08/14 02:43:31;;;;;;;7.28;5.60;;;;;;;28.07;43.26;99940.80;1797595;79;21042;-81
2022/08/14 02:45:59;;;;;;;6.20;5.33;;;;;;;28.07;43.23;99939.40;1798051;79;21501;-81
2022/08/14 02:48:35;;;;;;;6.10;5.50;;;;;;;28.06;43.22;99941.38;1798045;79;21042;-81
2022/08/14 02:50:58;;;;;;;6.67;5.40;;;;;;;28.07;43.26;99936.59;1796057;79;21058;-81
2022/08/14 02:53:25;;;;;;;7.12;5.80;;;;;;;28.07;43.29;99940.20;1797634;79;22002;-82
2022/08/14 02:55:52;;;;;;;6.00;5.03;;;;;;;28.06;43.26;99937.19;1798099;79;21284;-82
2022/08/14 02:58:22;;;;;;;6.20;5.60;;;;;;;28.06;43.27;99934.39;1775655;79;21563;-81
2022/08/14 03:00:48;;;;;;;5.95;5.35;;;;;;;28.06;43.32;99931.60;1797829;79;21051;-81
2022/08/14 03:03:16;;;;;;;5.45;4.95;;;;;;;28.08;43.31;99936.81;1798104;79;21045;-81
2022/08/14 03:05:43;;;;;;;7.03;5.40;;;;;;;28.07;43.30;99940.80;1797763;79;21178;-81
2022/08/14 03:08:12;;;;;;;6.42;5.62;;;;;;;28.06;43.33;99944.19;1797993;79;21030;-81
2022/08/14 03:10:38;;;;;;;6.15;5.37;;;;;;;28.06;43.33;99939.98;1797929;79;20999;-81
2022/08/14 03:13:05;;;;;;;6.08;5.47;;;;;;;28.06;43.36;99938.59;1797889;79;21030;-81
2022/08/14 03:15:40;;;;;;;7.33;5.22;;;;;;;28.07;43.34;99938.80;1798177;79;21054;-81
2022/08/14 03:18:11;;;;;;;6.00;5.22;;;;;;;28.07;43.32;99954.19;1797891;79;22973;-82
2022/08/14 03:20:44;;;;;;;6.47;5.58;;;;;;;28.07;43.32;99943.59;1797787;79;21051;-82
2022/08/14 03:23:10;;;;;;;6.78;5.67;;;;;;;28.07;43.36;99946.39;1798010;79;21034;-81
2022/08/14 03:25:37;;;;;;;7.33;5.87;;;;;;;28.06;43.35;99944.19;1798207;79;21053;-81
2022/08/14 03:28:08;;;;;;;6.25;5.37;;;;;;;28.06;43.34;99953.97;1797917;79;21097;-82
2022/08/14 03:30:34;;;;;;;6.75;5.50;;;;;;;28.05;43.33;99955.16;1778519;78;21117;-81
2022/08/14 03:33:01;;;;;;;6.00;5.25;;;;;;;28.07;43.35;99951.98;1809002;78;21032;-81
2022/08/14 03:35:29;;;;;;;5.70;4.97;;;;;;;28.06;43.38;99954.56;1786181;79;21066;-81
2022/08/14 03:37:56;;;;;;;6.00;5.40;;;;;;;28.06;43.38;99953.16;1808598;78;21043;-81
2022/08/14 03:40:24;;;;;;;6.95;5.50;;;;;;;28.06;43.41;99948.97;1786100;79;21059;-81
2022/08/14 03:42:50;;;;;;;6.45;5.60;;;;;;;28.06;43.42;99953.16;1808625;78;21091;-81
2022/08/14 03:45:17;;;;;;;6.47;5.45;;;;;;;28.05;43.40;99952.36;1808642;78;21027;-81
2022/08/14 03:47:43;;;;;;;6.05;5.20;;;;;;;28.07;43.39;99954.78;1808909;78;21059;-81
2022/08/14 03:50:10;;;;;;;6.47;5.50;;;;;;;28.06;43.36;99951.17;1808724;78;21023;-81
2022/08/14 03:52:37;;;;;;;6.50;5.25;;;;;;;28.05;43.39;99948.16;1808998;78;21710;-81
2022/08/14 03:55:10;;;;;;;7.37;5.72;;;;;;;28.05;43.39;99950.96;1808948;78;21105;-81
2022/08/14 03:57:39;;;;;;;6.15;5.10;;;;;;;28.05;43.41;99953.75;1808693;78;21635;-82
2022/08/14 04:00:09;;;;;;;6.45;5.10;;;;;;;28.06;43.41;99955.37;1808942;78;21078;-81
2022/08/14 04:02:39;;;;;;;6.22;5.62;;;;;;;28.06;43.40;99955.95;1808952;78;21043;-82
2022/08/14 04:05:09;;;;;;;6.70;5.27;;;;;;;28.06;43.40;99953.97;1808822;78;20992;-82
2022/08/14 04:07:37;;;;;;;6.65;5.97;;;;;;;28.06;43.39;99948.97;1809129;78;21199;-82
2022/08/14 04:10:10;;;;;;;7.65;5.10;;;;;;;28.05;43.39;99952.98;1808836;78;21553;-82
2022/08/14 04:12:36;;;;;;;6.08;5.42;;;;;;;28.06;43.39;99955.95;1808843;78;20992;-82
2022/08/14 04:15:04;;;;;;;5.92;5.33;;;;;;;28.04;43.42;99947.98;1808929;78;20995;-82
2022/08/14 04:17:32;;;;;;;6.53;4.78;;;;;;;28.05;43.37;99950.19;1808958;78;21047;-81
2022/08/14 04:20:02;;;;;;;6.53;5.70;;;;;;;28.05;43.40;99948.16;1808627;79;21161;-82
2022/08/14 04:22:28;;;;;;;6.40;5.05;;;;;;;28.04;43.41;99947.98;1808942;78;21133;-82
2022/08/14 04:24:55;;;;;;;6.40;5.33;;;;;;;28.04;43.40;99947.98;1808790;78;21504;-81
2022/08/14 04:27:22;;;;;;;6.55;5.45;;;;;;;28.05;43.42;99946.77;1808596;78;21418;-82
2022/08/14 04:29:48;;;;;;;6.95;5.35;;;;;;;28.05;43.45;99947.39;1808936;78;21074;-81
2022/08/14 04:32:15;;;;;;;6.60;5.45;;;;;;;28.06;43.46;99946.17;1809044;78;21419;-82
2022/08/14 04:34:42;;;;;;;5.65;5.05;;;;;;;28.05;43.47;99945.37;1808560;78;21003;-82
2022/08/14 04:45:39;;;;;;;6.50;5.08;;;;;;;28.04;43.41;99942.39;1808496;78;22606;-82
2022/08/14 04:48:12;;;;;;;6.22;5.33;;;;;;;28.04;43.47;99936.80;1807136;78;21023;-82
2022/08/14 04:50:41;;;;;;;5.83;5.17;;;;;;;28.05;43.49;99937.59;1808541;78;21126;-82
2022/08/14 04:53:13;;;;;;;6.17;5.47;;;;;;;28.04;43.47;99941.58;1808214;78;21058;-82
2022/08/14 04:55:39;;;;;;;7.58;5.28;;;;;;;28.03;43.50;99946.37;1807617;78;21027;-82
2022/08/14 04:58:05;;;;;;;6.67;5.28;;;;;;;28.04;43.54;99941.58;1808563;78;21497;-82
2022/08/14 05:00:32;;;;;;;6.87;5.37;;;;;;;28.03;43.53;99933.78;1808960;78;21027;-82
2022/08/14 05:03:01;;;;;;;7.25;5.55;;;;;;;28.04;43.54;99933.19;1786394;79;21102;-82
2022/08/14 05:05:27;;;;;;;7.42;6.22;;;;;;;28.04;43.58;99935.40;1808141;78;21022;-82
2022/08/14 05:07:53;;;;;;;7.40;5.35;;;;;;;28.04;43.59;99938.78;1786399;79;21044;-82
2022/08/14 05:10:25;;;;;;;9.78;5.97;;;;;;;28.04;43.59;99946.58;1808859;79;21127;-82
2022/08/14 05:12:52;;;;;;;6.70;5.80;;;;;;;28.04;43.62;99946.58;1808606;78;21086;-82
2022/08/14 05:15:20;;;;;;;8.70;6.00;;;;;;;28.03;43.60;99944.97;1808724;78;21288;-82
2022/08/14 05:17:47;;;;;;;8.88;5.80;;;;;;;28.04;43.63;99952.17;1808933;78;21043;-82
2022/08/14 05:20:14;;;;;;;8.18;5.90;;;;;;;28.04;43.67;99939.59;1808645;78;21541;-81
2022/08/14 05:22:40;;;;;;;8.63;5.78;;;;;;;28.04;43.71;99940.98;1808741;78;21825;-82
2022/08/14 05:25:07;;;;;;;6.58;5.80;;;;;;;28.04;43.69;99939.59;1808631;78;21019;-81
2022/08/14 05:27:34;;;;;;;9.15;6.00;;;;;;;28.04;43.75;99940.98;1808748;78;21004;-82
2022/08/14 05:30:04;;;;;;;6.83;5.15;;;;;;;28.04;43.76;99942.98;1808901;78;21536;-82
2022/08/14 05:32:30;;;;;;;6.97;5.80;;;;;;;28.04;43.75;99947.17;1793404;77;21068;-81
2022/08/14 05:34:57;;;;;;;8.80;6.15;;;;;;;28.04;43.78;99953.57;1835254;77;21155;-81
2022/08/14 05:37:25;;;;;;;7.90;6.15;;;;;;;28.04;43.79;99958.36;1839485;77;22006;-82
2022/08/14 05:39:51;;;;;;;6.47;5.67;;;;;;;28.04;43.79;99959.76;1839555;78;21040;-82
2022/08/14 05:42:18;;;;;;;7.15;5.75;;;;;;;28.04;43.80;99955.56;1818268;77;21840;-82
2022/08/14 05:44:44;;;;;;;9.00;6.05;;;;;;;28.04;43.79;99949.38;1839531;78;20990;-82
2022/08/14 05:47:11;;;;;;;7.72;5.95;;;;;;;28.05;43.81;99944.59;1839778;78;21354;-82
2022/08/14 05:49:37;;;;;;;5.95;5.35;;;;;;;28.04;43.81;99935.40;1839217;78;20969;-82
2022/08/14 05:52:04;;;;;;;6.78;5.75;;;;;;;28.04;43.76;99937.39;1839604;78;21509;-82
2022/08/14 05:54:31;;;;;;;6.12;5.53;;;;;;;28.04;43.81;99940.98;1839847;78;21135;-81
2022/08/14 05:56:57;;;;;;;8.08;5.67;;;;;;;28.04;43.88;99939.59;1839275;78;21012;-81
2022/08/14 05:59:24;;;;;;;6.62;5.33;;;;;;;28.05;43.90;99937.59;1839535;78;21069;-81
2022/08/14 06:01:50;;;;;;;7.33;6.00;;;;;;;28.04;43.92;99940.19;1839509;77;21029;-82
2022/08/14 06:04:17;;;;;;;8.28;5.67;;;;;;;28.04;43.96;99930.39;1839312;77;21008;-81
2022/08/14 06:06:43;;;;;;;5.45;4.90;;;;;;;28.04;43.96;99939.59;1839527;77;21585;-81
2022/08/14 06:09:09;;;;;;;7.17;5.60;;;;;;;28.03;43.94;99935.19;1839741;78;21020;-82
2022/08/14 06:11:36;;;;;;;6.53;5.62;;;;;;;28.03;43.90;99933.78;1839252;77;21164;-81
2022/08/14 06:14:02;;;;;;;7.35;5.40;;;;;;;28.04;43.90;99935.40;1839728;78;21139;-81
2022/08/14 06:16:29;;;;;;;7.15;5.70;;;;;;;28.04;43.93;99932.59;1839622;78;21017;-82
2022/08/14 06:18:55;;;;;;;9.23;5.55;;;;;;;28.04;43.99;99925.61;1839302;77;20977;-81
2022/08/14 06:21:22;;;;;;;7.03;5.50;;;;;;;28.04;43.97;99927.01;1839546;77;21021;-81
2022/08/14 06:23:48;;;;;;;6.17;5.08;;;;;;;28.05;43.93;99929.21;1839780;77;21385;-81
2022/08/14 06:26:14;;;;;;;6.83;5.40;;;;;;;28.04;43.98;99926.20;1839153;78;20977;-82
2022/08/14 06:28:41;;;;;;;8.00;6.28;;;;;;;28.05;44.00;99935.58;1839701;77;21024;-81
2022/08/14 06:31:10;;;;;;;6.28;5.28;;;;;;;28.06;44.00;99925.20;1840199;77;20989;-82
2022/08/14 06:33:36;;;;;;;6.78;5.80;;;;;;;28.05;44.03;99926.41;1845252;77;21067;-82
2022/08/14 06:36:03;;;;;;;7.10;5.97;;;;;;;28.06;44.05;99918.21;1845441;77;21137;-82
2022/08/14 06:38:29;;;;;;;5.58;4.97;;;;;;;28.05;44.09;99925.80;1845476;77;21036;-82
2022/08/14 06:40:55;;;;;;;7.12;5.40;;;;;;;28.05;44.10;99927.19;1845204;77;21613;-82
2022/08/14 06:43:22;;;;;;;6.58;5.72;;;;;;;28.07;44.13;99927.62;1843135;77;21456;-82
2022/08/14 06:45:49;;;;;;;6.75;5.58;;;;;;;28.07;44.15;99914.23;1834696;77;20903;-82
2022/08/14 06:48:17;;;;;;;9.25;5.55;;;;;;;28.07;44.17;99919.82;1808614;78;22004;-82
2022/08/14 06:50:45;;;;;;;6.97;5.87;;;;;;;28.07;44.22;99917.03;1805006;78;21073;-82
2022/08/14 06:53:13;;;;;;;7.17;5.58;;;;;;;28.07;44.23;99910.84;1803216;79;21049;-82
2022/08/14 06:55:43;;;;;;;8.15;5.70;;;;;;;28.08;44.28;99925.03;1802903;79;21121;-82
2022/08/14 06:58:13;;;;;;;7.43;6.00;;;;;;;28.08;44.33;99920.84;1803529;79;20943;-82
2022/08/14 07:00:39;;;;;;;6.87;5.92;;;;;;;28.08;44.35;99918.64;1803238;78;22111;-82
2022/08/14 07:05:50;;;;;;;8.90;5.53;;;;;;;28.08;44.40;99913.84;1802688;79;21058;-82
2022/08/14 07:08:25;;;;;;;6.53;5.65;;;;;;;28.08;44.41;99917.23;1802809;79;21031;-83
2022/08/14 07:10:54;;;;;;;7.72;5.47;;;;;;;28.09;44.46;99913.26;1803294;79;21101;-81
2022/08/14 07:13:20;;;;;;;7.65;5.90;;;;;;;28.09;44.45;99913.26;1802941;79;21091;-81
2022/08/14 07:15:49;;;;;;;6.97;5.70;;;;;;;28.09;44.47;99913.26;1802949;79;21591;-81
2022/08/14 07:18:24;;;;;;;7.90;5.75;;;;;;;28.09;44.48;99914.06;1802999;78;21023;-80
2022/08/14 07:20:51;;;;;;;8.20;5.83;;;;;;;28.09;44.51;99910.46;1802751;78;21113;-83
2022/08/14 07:23:18;;;;;;;7.45;6.05;;;;;;;28.09;44.51;99913.26;1803398;79;21489;-83
2022/08/14 07:25:45;;;;;;;7.92;6.15;;;;;;;28.09;44.53;99911.86;1803206;79;20959;-83
2022/08/14 07:28:30;;;;;;;7.10;5.62;;;;;;;28.08;44.57;99916.65;1803121;79;20967;-82
2022/08/14 07:30:57;;;;;;;7.65;6.50;;;;;;;28.08;44.58;99925.63;1803213;79;21010;-82
2022/08/14 07:33:25;;;;;;;7.17;6.20;;;;;;;28.08;44.57;99937.62;1796204;79;21059;-82
2022/08/14 07:35:52;;;;;;;7.40;5.92;;;;;;;28.07;44.59;99936.01;1795903;79;21078;-81
2022/08/14 07:38:20;;;;;;;8.05;6.25;;;;;;;28.08;44.60;99919.44;1795778;79;21797;-82
2022/08/14 07:40:49;;;;;;;6.97;6.25;;;;;;;28.08;44.61;99927.02;1795523;79;21046;-81
2022/08/14 07:43:15;;;;;;;6.60;5.78;;;;;;;28.08;44.58;99936.22;1795611;79;21434;-82
2022/08/14 07:45:42;;;;;;;6.95;6.22;;;;;;;28.08;44.59;99934.02;1795826;79;21137;-82
2022/08/14 07:48:08;;;;;;;6.83;5.87;;;;;;;28.08;44.59;99942.41;1795658;79;21039;-82
2022/08/14 07:50:35;;;;;;;8.35;6.00;;;;;;;28.07;44.64;99940.20;1795912;79;21139;-82
2022/08/14 07:53:01;;;;;;;6.78;5.95;;;;;;;28.07;44.66;99942.19;1795865;79;21714;-82
2022/08/14 07:55:28;;;;;;;7.47;6.28;;;;;;;28.07;44.60;99936.01;1795756;79;21019;-82
2022/08/14 07:57:55;;;;;;;8.58;7.17;;;;;;;28.07;44.60;99929.61;1795773;79;21004;-83
2022/08/14 08:00:23;;;;;;;7.17;6.47;;;;;;;28.07;44.62;99925.41;1796047;79;21004;-82
2022/08/14 08:02:53;;;;;;;8.00;6.50;;;;;;;28.07;44.65;99948.59;1795963;79;21565;-81
2022/08/14 08:05:27;;;;;;;7.03;6.03;;;;;;;28.07;44.67;99950.58;1796166;79;21478;-82
2022/08/14 08:07:56;;;;;;;8.63;6.33;;;;;;;28.08;44.65;99952.19;1795063;79;21097;-82
2022/08/14 08:10:31;;;;;;;7.45;6.55;;;;;;;28.07;44.70;99955.58;1795748;79;21042;-82
2022/08/14 08:13:02;;;;;;;8.15;6.50;;;;;;;28.06;44.71;99944.19;1796003;79;21407;-82
2022/08/14 08:15:32;;;;;;;6.92;6.17;;;;;;;28.06;44.73;99935.80;1795361;79;21798;-82
2022/08/14 08:18:04;;;;;;;7.22;6.30;;;;;;;28.06;44.72;99930.80;1795831;79;21086;-82
2022/08/14 08:20:33;;;;;;;10.13;6.08;;;;;;;28.06;44.73;99936.39;1795113;79;21047;-82
2022/08/14 08:23:01;;;;;;;6.87;6.03;;;;;;;28.05;44.78;99925.80;1796212;79;21074;-82
2022/08/14 08:25:30;;;;;;;7.42;5.97;;;;;;;28.06;44.77;99933.59;1776065;79;21442;-82
2022/08/14 08:28:08;;;;;;;7.62;5.85;;;;;;;28.06;44.80;99935.80;1795723;79;21169;-82
2022/08/14 08:30:37;;;;;;;8.48;6.28;;;;;;;28.05;44.83;99927.19;1795873;79;21079;-82
2022/08/14 08:33:05;;;;;;;7.10;5.70;;;;;;;28.04;44.82;99915.82;1800476;78;21007;-82
2022/08/14 08:35:34;;;;;;;9.15;6.03;;;;;;;28.05;44.83;99917.41;1772634;79;21070;-82
2022/08/14 08:38:04;;;;;;;8.43;6.17;;;;;;;28.05;44.84;99920.83;1804023;78;21046;-82
2022/08/14 08:40:35;;;;;;;9.35;6.05;;;;;;;28.05;44.83;99902.02;1803673;79;21840;-82
2022/08/14 08:43:05;;;;;;;6.53;5.70;;;;;;;28.05;44.85;99895.03;1803624;78;21035;-82
2022/08/14 08:45:33;;;;;;;7.58;5.67;;;;;;;28.05;44.84;99886.64;1803482;79;21051;-82
2022/08/14 08:48:06;;;;;;;6.85;6.05;;;;;;;28.05;44.79;99874.06;1803426;79;21511;-82
2022/08/14 08:50:37;;;;;;;7.58;5.60;;;;;;;28.04;44.83;99878.08;1803849;79;22028;-82
2022/08/14 08:53:07;;;;;;;6.30;5.62;;;;;;;28.04;44.85;99879.47;1803510;79;21247;-82
2022/08/14 08:55:42;;;;;;;7.97;5.87;;;;;;;28.05;44.86;99856.51;1803601;78;21046;-82
2022/08/14 08:58:16;;;;;;;7.75;5.90;;;;;;;28.05;44.91;99850.30;1771024;79;21034;-82
2022/08/14 09:00:47;;;;;;;6.55;5.80;;;;;;;28.05;44.92;99849.52;1803334;79;21055;-82
2022/08/14 09:03:18;;;;;;;7.55;5.95;;;;;;;28.04;44.93;99854.31;1802945;79;21065;-82
2022/08/14 09:06:03;;;;;;;5.80;5.15;;;;;;;28.05;44.91;99864.90;1773518;79;21515;-82
2022/08/14 09:08:32;;;;;;;7.28;5.45;;;;;;;28.05;44.97;99870.48;1803529;79;20984;-82
2022/08/14 09:11:06;;;;;;;7.17;5.47;;;;;;;28.04;44.99;99880.88;1803931;79;21054;-82
2022/08/14 09:13:32;;;;;;;7.58;5.37;;;;;;;28.04;45.05;99885.06;1801119;79;21043;-82
2022/08/14 09:16:00;;;;;;;6.65;5.47;;;;;;;28.04;45.06;99878.08;1798183;79;20947;-82
2022/08/14 09:18:26;;;;;;;6.30;5.33;;;;;;;28.05;45.07;99877.48;1798025;79;22155;-82
2022/08/14 09:20:55;;;;;;;6.55;5.47;;;;;;;28.05;45.05;99866.30;1797862;79;21085;-82
2022/08/14 09:23:21;;;;;;;7.08;5.12;;;;;;;28.05;45.06;99871.27;1798018;79;21394;-82
2022/08/14 09:26:06;;;;;;;8.48;5.85;;;;;;;28.06;45.07;99864.48;1797843;79;20978;-82
2022/08/14 09:28:32;;;;;;;6.67;5.03;;;;;;;28.06;45.07;99859.48;1775576;79;21089;-82
2022/08/14 09:30:59;;;;;;;6.78;5.47;;;;;;;28.05;45.09;99855.89;1797846;79;21622;-82
2022/08/14 09:33:40;;;;;;;6.50;5.33;;;;;;;28.06;45.10;99856.09;1801427;79;20995;-82
2022/08/14 09:36:40;;;;;;;7.10;4.55;;;;;;;28.06;45.13;99850.50;1803113;78;20999;-82
2022/08/14 09:39:15;;;;;;;7.87;5.30;;;;;;;28.05;45.12;99848.12;1803892;78;21051;-82
2022/08/14 09:42:11;;;;;;;6.45;5.20;;;;;;;28.05;45.16;99836.94;1803523;78;21058;-82
2022/08/14 09:44:53;;;;;;;7.12;5.00;;;;;;;28.05;45.16;99828.55;1803219;79;21516;-82
2022/08/14 09:47:49;;;;;;;6.33;5.20;;;;;;;28.04;45.18;99822.15;1803305;79;21409;-82
2022/08/14 09:50:28;;;;;;;6.67;5.33;;;;;;;28.04;45.18;99826.94;1803931;79;28155;-82
2022/08/14 09:53:01;;;;;;;5.65;5.15;;;;;;;28.04;45.17;99826.94;1803480;79;22246;-82
2022/08/14 09:55:32;;;;;;;7.53;5.10;;;;;;;28.03;45.17;99830.33;1803765;78;21058;-82
2022/08/14 09:58:16;;;;;;;6.92;5.12;;;;;;;28.03;45.23;99833.72;1803549;79;21657;-82
2022/08/14 10:00:49;;;;;;;6.30;5.28;;;;;;;28.02;45.20;99838.50;1803556;79;21474;-82
2022/08/14 10:03:37;;;;;;;6.65;4.87;;;;;;;28.03;45.20;99833.13;1802859;79;21027;-82
2022/08/14 10:06:16;;;;;;;5.37;4.87;;;;;;;28.02;45.23;99820.33;1803748;79;21050;-82
2022/08/14 10:08:59;;;;;;;6.25;5.05;;;;;;;28.03;45.21;99818.34;1802950;78;21004;-82
2022/08/14 10:11:34;;;;;;;5.30;4.75;;;;;;;28.03;45.26;99817.74;1803779;78;21130;-82
2022/08/14 10:14:05;;;;;;;6.40;5.05;;;;;;;28.03;45.24;99804.36;1802730;78;21064;-82
2022/08/14 10:16:31;;;;;;;6.72;5.17;;;;;;;28.03;45.25;99798.17;1803097;78;21054;-82
2022/08/14 10:19:09;;;;;;;7.17;5.08;;;;;;;28.03;45.27;99788.98;1773015;79;21482;-82
2022/08/14 10:21:38;;;;;;;5.70;5.00;;;;;;;28.03;45.33;99785.59;1803348;79;21558;-82
2022/08/14 10:24:07;;;;;;;6.95;5.20;;;;;;;28.04;45.32;99790.59;1772724;79;21450;-82
2022/08/14 10:26:33;;;;;;;4.75;4.25;;;;;;;28.04;45.32;99778.81;1803489;79;21129;-82
2022/08/14 10:29:11;;;;;;;5.47;4.90;;;;;;;28.04;45.34;99779.41;1803387;79;21074;-82
2022/08/14 10:31:37;;;;;;;6.78;5.65;;;;;;;28.05;45.36;99783.81;1803560;79;21500;-82
2022/08/14 10:34:09;;;;;;;6.28;4.72;;;;;;;28.05;45.37;99790.17;1803226;79;20979;-82
2022/08/14 10:36:42;;;;;;;5.80;5.20;;;;;;;28.05;45.32;99794.38;1803591;79;21153;-82
2022/08/14 10:39:24;;;;;;;5.97;5.37;;;;;;;28.05;45.36;99794.38;1803406;79;20969;-82
2022/08/14 10:42:03;;;;;;;6.70;5.20;;;;;;;28.06;45.36;99793.77;1803756;79;20999;-82
2022/08/14 10:44:35;;;;;;;6.95;5.12;;;;;;;28.06;45.37;99793.18;1803320;79;21045;-82
2022/08/14 10:47:04;;;;;;;6.00;5.17;;;;;;;28.06;45.36;99798.77;1803737;79;21046;-82
2022/08/14 10:49:30;;;;;;;6.65;5.10;;;;;;;28.07;45.37;99796.78;1803750;79;21104;-82
2022/08/14 10:52:05;;;;;;;7.60;5.20;;;;;;;28.07;45.40;99798.98;1803478;79;21030;-82
2022/08/14 10:54:41;;;;;;;6.17;5.58;;;;;;;28.08;45.42;99791.41;1804003;79;21078;-82
2022/08/14 10:57:23;;;;;;;6.33;5.35;;;;;;;28.08;45.41;99794.20;1803223;79;20995;-82
2022/08/14 10:59:58;;;;;;;5.70;5.10;;;;;;;28.07;45.41;99787.80;1803987;78;21051;-83
2022/08/14 11:02:29;;;;;;;6.08;5.33;;;;;;;28.08;45.40;99781.61;1803679;79;21506;-83
2022/08/14 11:05:14;;;;;;;6.67;5.60;;;;;;;28.08;45.40;99776.02;1803796;79;21535;-83
2022/08/14 11:07:59;;;;;;;6.80;4.83;;;;;;;28.09;45.39;99786.02;1803561;78;21086;-83
2022/08/14 11:10:45;;;;;;;5.75;5.10;;;;;;;28.08;45.36;99788.02;1803973;79;20952;-83
2022/08/14 11:13:22;;;;;;;7.85;5.40;;;;;;;28.09;45.35;99778.44;1775913;79;21109;-83
2022/08/14 11:15:49;;;;;;;5.97;5.17;;;;;;;28.08;45.35;99779.63;1803953;78;21286;-82
2022/08/14 11:18:19;;;;;;;6.33;5.05;;;;;;;28.08;45.31;99782.42;1803553;79;20991;-83
2022/08/14 11:20:58;;;;;;;6.60;5.03;;;;;;;28.09;45.34;99779.03;1803982;79;21421;-83
2022/08/14 11:23:30;;;;;;;6.67;5.37;;;;;;;28.08;45.33;99774.03;1803524;78;21525;-83
2022/08/14 11:25:58;;;;;;;6.03;5.05;;;;;;;28.08;45.28;99769.84;1803956;79;21008;-83
2022/08/14 11:28:27;;;;;;;5.70;5.10;;;;;;;28.09;45.31;99770.64;1803820;78;21888;-83
2022/08/14 11:30:55;;;;;;;6.87;5.60;;;;;;;28.09;45.33;99763.05;1803483;78;20987;-82
2022/08/14 11:33:23;;;;;;;5.75;5.10;;;;;;;28.09;45.30;99761.66;1803716;78;21089;-83
2022/08/14 11:35:49;;;;;;;5.53;4.65;;;;;;;28.08;45.30;99760.05;1803870;78;21438;-82
2022/08/14 11:38:18;;;;;;;7.37;4.83;;;;;;;28.09;45.30;99758.86;1803746;78;21010;-82
2022/08/14 11:40:45;;;;;;;6.47;5.47;;;;;;;28.10;45.30;99744.28;1803785;78;21560;-82
2022/08/14 11:43:11;;;;;;;6.03;5.20;;;;;;;28.10;45.32;99738.10;1803689;78;21078;-82
2022/08/14 11:45:39;;;;;;;5.75;5.00;;;;;;;28.10;45.30;99729.71;1803703;79;21577;-82
2022/08/14 11:48:24;;;;;;;7.03;5.28;;;;;;;28.12;45.31;99723.73;1803822;78;21062;-82
2022/08/14 11:50:53;;;;;;;6.45;5.35;;;;;;;28.12;45.29;99720.94;1803676;78;21038;-82
2022/08/14 11:53:29;;;;;;;5.58;4.85;;;;;;;28.12;45.29;99721.74;1804182;78;21252;-83
2022/08/14 11:55:57;;;;;;;5.58;4.83;;;;;;;28.12;45.28;99712.55;1802998;78;20928;-83
2022/08/14 11:58:26;;;;;;;6.47;4.85;;;;;;;28.12;45.31;99716.15;1803501;78;20963;-83